Time;durP1;ratioP1;P1;durP2;ratioP2;P2;SDS_P1;SDS_P2;PMS_P1;PMS_P2;Temp;Humidity;BMP_temperature;BMP_pressure;BME280_temperature;BME280_humidity;BME280_pressure;Samples;Min_cycle;Max_cycle;Signal;HPM_P1;HPM_P2
2023/08/21 00:01:41;;;;;;;17.97;16.60;;;21.70;99.90;;;;;;5020397;28;20247;-77
2023/08/21 00:04:08;;;;;;;18.70;17.23;;;21.60;99.90;;;;;;5025816;28;20228;-77
2023/08/21 00:06:35;;;;;;;19.33;17.97;;;21.60;99.90;;;;;;5026827;28;20243;-77
2023/08/21 00:09:03;;;;;;;19.53;17.93;;;21.60;99.90;;;;;;5032193;28;20208;-77
2023/08/21 00:11:30;;;;;;;19.53;18.10;;;21.60;99.90;;;;;;5023691;28;20200;-78
2023/08/21 00:13:57;;;;;;;20.10;18.60;;;21.60;99.90;;;;;;5032126;28;20219;-77
2023/08/21 00:16:24;;;;;;;20.43;18.83;;;21.50;99.90;;;;;;5029811;28;20231;-77
2023/08/21 00:18:51;;;;;;;19.93;18.43;;;21.50;99.90;;;;;;5027543;28;20567;-78
2023/08/21 00:21:17;;;;;;;20.03;18.53;;;21.50;99.90;;;;;;5023038;28;20203;-78
2023/08/21 00:23:44;;;;;;;19.17;17.77;;;21.50;99.90;;;;;;5027244;28;20216;-77
2023/08/21 00:26:12;;;;;;;19.90;18.50;;;21.50;99.90;;;;;;5021803;28;20220;-76
2023/08/21 00:28:39;;;;;;;19.70;18.30;;;21.40;99.90;;;;;;5022676;28;20255;-78
2023/08/21 00:31:06;;;;;;;20.73;19.20;;;21.40;99.90;;;;;;5031477;28;20196;-78
2023/08/21 00:33:34;;;;;;;20.53;19.03;;;21.40;99.90;;;;;;5021002;28;20220;-78
2023/08/21 00:36:00;;;;;;;20.27;18.87;;;21.40;99.90;;;;;;5023665;28;20208;-77
2023/08/21 00:38:27;;;;;;;20.43;19.00;;;21.40;99.90;;;;;;5027888;28;20270;-77
2023/08/21 00:40:54;;;;;;;19.67;18.27;;;21.30;99.90;;;;;;5031641;28;20199;-77
2023/08/21 00:43:22;;;;;;;20.10;18.73;;;21.30;99.90;;;;;;5021974;28;20702;-78
2023/08/21 00:45:50;;;;;;;22.03;20.30;;;21.30;99.90;;;;;;5030045;28;20608;-77
2023/08/21 00:48:18;;;;;;;21.67;20.17;;;21.30;99.90;;;;;;5026161;28;20208;-77
2023/08/21 00:50:46;;;;;;;21.43;19.83;;;21.30;99.90;;;;;;5025454;28;20188;-78
2023/08/21 00:53:13;;;;;;;20.50;19.10;;;21.20;99.90;;;;;;5024742;28;20258;-77
2023/08/21 00:55:41;;;;;;;20.63;19.23;;;21.30;99.90;;;;;;5027009;28;20600;-77
2023/08/21 00:58:11;;;;;;;21.83;20.10;;;21.20;99.90;;;;;;5024581;28;20203;-78
2023/08/21 01:00:40;;;;;;;20.50;19.00;;;21.20;99.90;;;;;;5027834;28;20243;-78
2023/08/21 01:03:08;;;;;;;19.67;18.17;;;21.10;99.90;;;;;;5020844;28;20286;-78
2023/08/21 01:05:36;;;;;;;19.60;18.00;;;21.10;99.90;;;;;;5028270;28;20222;-77
2023/08/21 01:08:06;;;;;;;18.27;16.97;;;21.00;99.90;;;;;;5024738;28;20203;-77
2023/08/21 01:10:41;;;;;;;19.40;17.90;;;21.10;99.90;;;;;;5034357;28;20192;-77
2023/08/21 01:13:17;;;;;;;19.20;17.70;;;21.00;99.90;;;;;;5024598;28;20273;-77
2023/08/21 01:15:46;;;;;;;18.97;17.47;;;21.00;99.90;;;;;;5021126;28;20200;-77
2023/08/21 01:18:15;;;;;;;18.93;17.43;;;21.00;99.90;;;;;;5039210;28;20207;-77
2023/08/21 01:20:43;;;;;;;19.30;17.80;;;21.00;99.90;;;;;;5023401;28;20196;-77
2023/08/21 01:23:10;;;;;;;19.03;17.53;;;21.00;99.90;;;;;;5021115;28;20753;-77
2023/08/21 01:25:38;;;;;;;17.63;16.23;;;20.90;99.90;;;;;;5027731;28;20234;-77
2023/08/21 01:28:05;;;;;;;18.00;16.70;;;20.90;99.90;;;;;;5022248;28;20204;-77
2023/08/21 01:30:34;;;;;;;19.17;17.67;;;20.90;99.90;;;;;;5028428;28;20193;-77
2023/08/21 01:33:06;;;;;;;18.77;17.17;;;20.80;99.90;;;;;;5016687;28;20242;-78
2023/08/21 01:35:36;;;;;;;18.20;16.70;;;20.80;99.90;;;;;;5024516;28;20187;-77
2023/08/21 01:38:03;;;;;;;17.40;16.10;;;20.80;99.90;;;;;;5023338;28;20575;-77
2023/08/21 01:40:30;;;;;;;18.70;17.07;;;20.80;99.90;;;;;;5027061;28;20263;-76
2023/08/21 01:43:01;;;;;;;17.83;16.47;;;20.80;99.90;;;;;;5028796;28;20247;-78
2023/08/21 01:45:28;;;;;;;18.83;17.20;;;20.80;99.90;;;;;;5021046;28;20220;-77
2023/08/21 01:47:55;;;;;;;18.50;17.10;;;20.80;99.90;;;;;;5028493;28;20200;-77
2023/08/21 01:50:22;;;;;;;18.50;17.10;;;20.70;99.90;;;;;;5025041;28;20203;-77
2023/08/21 01:52:48;;;;;;;17.40;16.10;;;20.70;99.90;;;;;;5024042;28;20232;-78
2023/08/21 01:55:15;;;;;;;18.40;16.93;;;20.70;99.90;;;;;;5031925;28;20196;-77
2023/08/21 01:57:43;;;;;;;18.90;17.27;;;20.70;99.90;;;;;;5025061;28;20663;-78
2023/08/21 02:00:13;;;;;;;19.07;17.37;;;20.60;99.90;;;;;;5020559;28;20693;-78
2023/08/21 02:02:42;;;;;;;19.37;17.53;;;20.60;99.90;;;;;;5018383;28;20261;-77
2023/08/21 02:05:09;;;;;;;19.17;17.57;;;20.60;99.90;;;;;;5029723;28;20207;-77
2023/08/21 02:07:36;;;;;;;18.40;16.97;;;20.50;99.90;;;;;;5026442;28;20573;-77
2023/08/21 02:10:04;;;;;;;18.83;17.27;;;20.60;99.90;;;;;;5024671;28;20617;-77
2023/08/21 02:12:30;;;;;;;19.03;17.47;;;20.60;99.90;;;;;;5031985;28;20587;-77
2023/08/21 02:14:57;;;;;;;17.87;16.47;;;20.50;99.90;;;;;;5023368;28;20204;-77
2023/08/21 02:17:27;;;;;;;18.43;17.03;;;20.50;99.90;;;;;;5026992;28;20583;-77
2023/08/21 02:19:54;;;;;;;18.73;17.03;;;20.50;99.90;;;;;;5027757;28;20218;-77
2023/08/21 02:22:21;;;;;;;19.67;17.80;;;20.50;99.90;;;;;;5023687;28;20286;-78
2023/08/21 02:24:48;;;;;;;19.40;17.70;;;20.50;99.90;;;;;;5023211;28;20262;-78
2023/08/21 02:27:14;;;;;;;17.87;16.43;;;20.40;99.90;;;;;;5031097;28;20230;-78
2023/08/21 02:29:41;;;;;;;19.37;17.77;;;20.40;99.90;;;;;;5024859;28;20196;-78
2023/08/21 02:32:08;;;;;;;18.10;16.73;;;20.40;99.90;;;;;;5022646;28;20208;-77
2023/08/21 02:34:36;;;;;;;18.67;17.27;;;20.40;99.90;;;;;;5025722;28;20224;-77
2023/08/21 02:37:04;;;;;;;18.53;17.20;;;20.40;99.90;;;;;;5027527;28;20192;-77
2023/08/21 02:39:31;;;;;;;18.17;16.83;;;20.40;99.90;;;;;;5025776;28;20200;-77
2023/08/21 02:41:58;;;;;;;17.50;16.20;;;20.30;99.90;;;;;;5047492;28;20233;-77
2023/08/21 02:44:25;;;;;;;19.20;17.57;;;20.30;99.90;;;;;;5028279;28;20188;-78
2023/08/21 02:46:52;;;;;;;18.27;16.93;;;20.40;99.90;;;;;;5027216;28;20232;-78
2023/08/21 02:49:18;;;;;;;18.00;16.70;;;20.30;99.90;;;;;;5030916;28;20246;-78
2023/08/21 02:51:47;;;;;;;19.17;17.70;;;20.30;99.90;;;;;;5036968;28;20677;-78
2023/08/21 02:54:14;;;;;;;19.73;18.23;;;20.30;99.90;;;;;;5031929;28;20231;-78
2023/08/21 02:56:41;;;;;;;19.50;18.00;;;20.30;99.90;;;;;;5022316;28;20196;-78
2023/08/21 02:59:07;;;;;;;19.03;17.53;;;20.30;99.90;;;;;;5023909;28;20204;-77
2023/08/21 03:01:35;;;;;;;21.67;19.80;;;20.20;99.90;;;;;;5025673;28;20208;-77
2023/08/21 03:04:02;;;;;;;20.80;19.20;;;20.30;99.90;;;;;;5019369;28;20219;-77
2023/08/21 03:06:28;;;;;;;19.90;18.40;;;20.20;99.90;;;;;;5023705;28;20211;-77
2023/08/21 03:08:56;;;;;;;19.10;17.70;;;20.20;99.90;;;;;;5024253;28;20188;-77
2023/08/21 03:11:23;;;;;;;19.90;18.30;;;20.20;99.90;;;;;;5014523;28;20578;-77
2023/08/21 03:13:50;;;;;;;19.40;17.80;;;20.10;99.90;;;;;;5022637;28;20243;-77
2023/08/21 03:16:17;;;;;;;19.67;18.07;;;20.10;99.90;;;;;;5026491;28;20204;-77
2023/08/21 03:18:57;;;;;;;20.80;19.10;;;20.10;99.90;;;;;;5026659;28;20210;-77
2023/08/21 03:21:26;;;;;;;20.60;18.60;;;20.10;99.90;;;;;;5020542;28;20259;-76
2023/08/21 03:23:58;;;;;;;20.20;18.80;;;20.10;99.90;;;;;;5024455;28;20223;-80
2023/08/21 03:26:25;;;;;;;20.20;18.70;;;20.00;99.90;;;;;;5035421;28;20258;-80
2023/08/21 03:28:52;;;;;;;19.40;17.90;;;20.00;99.90;;;;;;5030662;28;20254;-79
2023/08/21 03:31:19;;;;;;;20.13;18.63;;;20.00;99.90;;;;;;5035736;28;20212;-80
2023/08/21 03:33:46;;;;;;;18.77;17.37;;;20.00;99.90;;;;;;5040187;28;20281;-79
2023/08/21 03:36:14;;;;;;;18.67;17.17;;;20.00;99.90;;;;;;5044564;28;20200;-79
2023/08/21 03:38:41;;;;;;;19.20;17.80;;;20.00;99.90;;;;;;5043066;28;20196;-79
2023/08/21 03:41:10;;;;;;;19.03;17.70;;;20.00;99.90;;;;;;5040784;28;20257;-79
2023/08/21 03:43:37;;;;;;;18.37;17.13;;;20.00;99.90;;;;;;5043806;28;20207;-79
2023/08/21 03:46:04;;;;;;;18.60;17.20;;;20.00;99.90;;;;;;5026099;28;20218;-80
2023/08/21 03:48:31;;;;;;;18.63;17.23;;;20.00;99.90;;;;;;5023283;28;20207;-80
2023/08/21 03:50:57;;;;;;;19.00;17.70;;;20.00;99.90;;;;;;5027002;28;20199;-79
2023/08/21 03:53:24;;;;;;;17.87;16.57;;;19.90;99.90;;;;;;5061412;22;20280;-77
2023/08/21 03:55:52;;;;;;;19.10;17.60;;;19.90;99.90;;;;;;5056213;28;20213;-76
2023/08/21 03:58:20;;;;;;;18.83;17.43;;;19.90;99.90;;;;;;5055561;28;20579;-77
2023/08/21 04:00:46;;;;;;;18.80;17.50;;;19.90;99.90;;;;;;5058806;28;20207;-77
2023/08/21 04:03:13;;;;;;;19.00;17.63;;;19.90;99.90;;;;;;5054846;28;20313;-77
2023/08/21 04:05:40;;;;;;;19.77;18.37;;;19.90;99.90;;;;;;5040224;28;20223;-76
2023/08/21 04:08:07;;;;;;;20.43;19.00;;;19.80;99.90;;;;;;5038190;28;20230;-76
2023/08/21 04:10:34;;;;;;;20.60;19.10;;;19.90;99.90;;;;;;5037976;28;20627;-78
2023/08/21 04:13:01;;;;;;;19.50;18.07;;;19.90;99.90;;;;;;5038518;28;20260;-77
2023/08/21 04:15:29;;;;;;;20.00;18.60;;;19.90;99.90;;;;;;5036950;28;20200;-78
2023/08/21 04:17:57;;;;;;;19.87;18.57;;;19.90;99.90;;;;;;5039028;28;20202;-77
2023/08/21 04:20:24;;;;;;;19.13;17.83;;;19.90;99.90;;;;;;5032128;28;20200;-76
2023/08/21 04:22:51;;;;;;;19.63;18.33;;;19.90;99.90;;;;;;5031419;28;20215;-76
2023/08/21 04:25:18;;;;;;;19.57;18.27;;;20.00;99.90;;;;;;5029561;28;20211;-75
2023/08/21 04:27:45;;;;;;;19.97;18.47;;;19.90;99.90;;;;;;5032210;28;20705;-76
2023/08/21 04:30:13;;;;;;;19.83;18.43;;;19.90;99.90;;;;;;5028143;28;20683;-75
2023/08/21 04:32:41;;;;;;;19.97;18.57;;;19.90;99.90;;;;;;5032946;28;20638;-76
2023/08/21 04:35:09;;;;;;;20.03;18.73;;;19.90;99.90;;;;;;5030159;28;20339;-77
2023/08/21 04:37:43;;;;;;;20.60;19.20;;;19.90;99.90;;;;;;5033542;28;20235;-78
2023/08/21 04:40:13;;;;;;;20.27;18.93;;;19.90;99.90;;;;;;5039921;28;20199;-77
2023/08/21 04:42:39;;;;;;;20.90;19.40;;;19.90;99.90;;;;;;5039001;28;20220;-78
2023/08/21 04:45:08;;;;;;;19.93;18.63;;;19.90;99.90;;;;;;5041454;28;20196;-77
2023/08/21 04:47:37;;;;;;;20.60;19.20;;;19.90;99.90;;;;;;5041088;28;20213;-78
2023/08/21 04:50:06;;;;;;;20.07;18.73;;;19.90;99.90;;;;;;5037640;28;20257;-78
2023/08/21 04:52:33;;;;;;;20.13;18.73;;;20.00;99.90;;;;;;5040923;28;20192;-78
2023/08/21 04:55:00;;;;;;;19.53;18.23;;;20.00;99.90;;;;;;5038879;28;20192;-79
2023/08/21 04:57:28;;;;;;;20.03;18.63;;;20.00;99.90;;;;;;5034356;28;20200;-79
2023/08/21 04:59:55;;;;;;;18.97;17.77;;;20.00;99.90;;;;;;5028295;28;20223;-81
2023/08/21 05:02:23;;;;;;;19.47;18.00;;;20.10;99.90;;;;;;5034945;28;20225;-78
2023/08/21 05:04:51;;;;;;;19.27;17.87;;;20.10;99.90;;;;;;5040150;28;20266;-77
2023/08/21 05:07:20;;;;;;;19.20;17.83;;;20.10;99.90;;;;;;5043343;28;20210;-78
2023/08/21 05:09:47;;;;;;;18.27;17.07;;;20.20;99.90;;;;;;5043007;28;20200;-76
2023/08/21 05:12:16;;;;;;;18.97;17.47;;;20.20;99.90;;;;;;5044404;28;20200;-80
2023/08/21 05:14:42;;;;;;;18.60;17.33;;;20.30;99.90;;;;;;5036318;28;20232;-76
2023/08/21 05:17:09;;;;;;;18.47;17.17;;;20.40;99.90;;;;;;5031956;28;20210;-80
2023/08/21 05:19:37;;;;;;;18.10;16.90;;;20.50;99.90;;;;;;5034419;28;20195;-76
2023/08/21 05:22:04;;;;;;;18.97;17.77;;;20.50;99.90;;;;;;5029755;28;20207;-76
2023/08/21 05:24:33;;;;;;;18.90;17.60;;;20.60;99.90;;;;;;5032623;28;20767;-76
2023/08/21 05:27:05;;;;;;;19.60;18.30;;;20.70;99.90;;;;;;5031977;28;20281;-76
2023/08/21 05:29:31;;;;;;;18.57;17.27;;;20.80;99.90;;;;;;5032104;28;20262;-76
2023/08/21 05:31:58;;;;;;;18.73;17.33;;;20.90;99.90;;;;;;5031393;28;20279;-76
2023/08/21 05:34:25;;;;;;;19.00;17.80;;;21.00;99.90;;;;;;5030085;28;20712;-76
2023/08/21 05:36:54;;;;;;;19.87;18.40;;;21.10;99.90;;;;;;5043444;28;20748;-76
2023/08/21 05:39:21;;;;;;;20.00;18.60;;;21.10;99.90;;;;;;5031175;28;20207;-76
2023/08/21 05:41:52;;;;;;;19.77;18.20;;;21.20;99.90;;;;;;5032272;28;20227;-76
2023/08/21 05:44:19;;;;;;;19.73;18.23;;;21.30;99.90;;;;;;5030739;28;20246;-76
2023/08/21 05:46:46;;;;;;;19.23;17.90;;;21.40;99.90;;;;;;5029960;28;20220;-76
2023/08/21 05:49:13;;;;;;;20.07;18.67;;;21.50;99.90;;;;;;5024608;28;20207;-76
2023/08/21 05:51:40;;;;;;;19.87;18.50;;;21.60;99.90;;;;;;5028863;28;20699;-76
2023/08/21 05:54:08;;;;;;;19.23;17.93;;;21.80;99.90;;;;;;5029129;28;20228;-76
2023/08/21 05:56:38;;;;;;;16.77;15.67;;;21.80;99.90;;;;;;5030893;28;20200;-76
2023/08/21 05:59:06;;;;;;;18.20;16.90;;;21.80;99.90;;;;;;5029488;28;20196;-76
2023/08/21 06:01:33;;;;;;;16.43;15.27;;;21.90;99.90;;;;;;5030119;28;20207;-76
2023/08/21 06:03:59;;;;;;;17.37;16.17;;;22.00;99.90;;;;;;5025553;28;20211;-76
2023/08/21 06:06:45;;;;;;;17.03;15.83;;;22.10;99.90;;;;;;5028565;28;20219;-76
2023/08/21 06:09:12;;;;;;;17.47;16.23;;;22.20;99.90;;;;;;5029179;28;20199;-76
2023/08/21 06:11:40;;;;;;;10.17;9.17;;;22.20;99.90;;;;;;5027675;28;20291;-76
2023/08/21 06:14:09;;;;;;;10.03;9.03;;;22.30;99.90;;;;;;5029175;28;20224;-76
2023/08/21 06:16:36;;;;;;;10.17;9.20;;;22.40;99.90;;;;;;5029978;28;20192;-76
2023/08/21 06:19:03;;;;;;;9.57;8.67;;;22.50;99.90;;;;;;5029193;28;20667;-76
2023/08/21 06:21:30;;;;;;;9.33;8.40;;;22.60;99.90;;;;;;5027283;28;20208;-76
2023/08/21 06:23:57;;;;;;;9.87;8.87;;;22.70;99.90;;;;;;5030558;28;20216;-77
2023/08/21 06:26:24;;;;;;;9.20;8.40;;;22.90;99.90;;;;;;5029263;28;20196;-75
2023/08/21 06:28:52;;;;;;;13.23;12.13;;;23.00;99.90;;;;;;5030091;28;20226;-76
2023/08/21 06:31:20;;;;;;;15.23;14.13;;;23.10;99.90;;;;;;5031378;28;20196;-75
2023/08/21 06:33:48;;;;;;;8.43;7.63;;;23.20;99.90;;;;;;5030871;28;20245;-76
2023/08/21 06:36:15;;;;;;;9.63;8.73;;;23.40;99.90;;;;;;5038036;28;20199;-75
2023/08/21 06:38:42;;;;;;;9.67;8.80;;;23.50;99.90;;;;;;5045249;28;20192;-76
2023/08/21 06:41:09;;;;;;;13.77;12.67;;;23.60;99.90;;;;;;5031904;28;20253;-75
2023/08/21 06:43:36;;;;;;;15.70;14.50;;;23.70;99.90;;;;;;5030885;28;20220;-76
2023/08/21 06:46:03;;;;;;;15.87;14.77;;;23.80;99.90;;;;;;5029381;28;20207;-76
2023/08/21 06:48:31;;;;;;;16.70;15.50;;;23.90;99.90;;;;;;5030241;28;20215;-75
2023/08/21 06:50:58;;;;;;;16.53;15.33;;;24.00;99.90;;;;;;5031553;28;20246;-75
2023/08/21 06:53:25;;;;;;;16.30;15.13;;;24.10;99.90;;;;;;5032535;28;20227;-76
2023/08/21 06:55:52;;;;;;;16.00;14.80;;;24.10;99.90;;;;;;5032849;28;20603;-76
2023/08/21 06:58:18;;;;;;;15.53;14.37;;;24.20;99.90;;;;;;5026836;28;20223;-76
2023/08/21 07:00:45;;;;;;;16.10;14.80;;;24.30;99.90;;;;;;5015401;28;20643;-76
2023/08/21 07:03:12;;;;;;;15.60;14.50;;;24.40;99.90;;;;;;5023267;28;20294;-76
2023/08/21 07:05:40;;;;;;;14.27;13.17;;;24.50;99.90;;;;;;5020429;28;20211;-76
2023/08/21 07:08:07;;;;;;;15.93;14.83;;;24.60;99.90;;;;;;5024588;28;20215;-76
2023/08/21 07:10:37;;;;;;;16.10;14.90;;;24.80;99.90;;;;;;5028829;28;20596;-75
2023/08/21 07:13:04;;;;;;;12.80;11.70;;;24.90;99.90;;;;;;5020943;28;20217;-75
2023/08/21 07:15:31;;;;;;;10.33;9.23;;;24.90;99.90;;;;;;5032816;28;20212;-76
2023/08/21 07:17:58;;;;;;;9.87;8.80;;;25.10;99.90;;;;;;5026072;28;20201;-76
2023/08/21 07:20:25;;;;;;;9.87;8.90;;;25.10;99.90;;;;;;5029787;28;20235;-76
2023/08/21 07:22:53;;;;;;;9.77;8.77;;;25.20;99.90;;;;;;5027089;28;20216;-77
2023/08/21 07:25:20;;;;;;;10.20;8.57;;;25.40;99.90;;;;;;5029867;28;20199;-77
2023/08/21 07:27:46;;;;;;;10.50;8.93;;;25.50;99.90;;;;;;5027623;28;20701;-77
2023/08/21 07:30:13;;;;;;;10.97;9.40;;;25.80;99.90;;;;;;5026277;28;20629;-77
2023/08/21 07:32:40;;;;;;;11.53;10.63;;;26.30;99.90;;;;;;5024601;28;20282;-77
2023/08/21 07:35:08;;;;;;;11.07;8.50;;;26.80;99.90;;;;;;5035054;28;20293;-77
2023/08/21 07:37:35;;;;;;;11.63;10.50;;;27.30;99.90;;;;;;5034460;28;20625;-77
2023/08/21 07:40:03;;;;;;;13.13;12.03;;;27.70;99.90;;;;;;5029229;28;20200;-77
2023/08/21 07:42:30;;;;;;;12.07;10.97;;;28.20;99.90;;;;;;5025452;28;20196;-77
2023/08/21 07:44:57;;;;;;;15.27;14.00;;;28.70;99.90;;;;;;5030240;28;20210;-77
2023/08/21 07:47:23;;;;;;;14.67;13.47;;;29.10;99.90;;;;;;5027498;28;20706;-77
2023/08/21 07:49:50;;;;;;;12.10;11.20;;;29.40;99.90;;;;;;5029338;28;20200;-77
2023/08/21 07:52:17;;;;;;;12.33;11.43;;;29.60;99.90;;;;;;5027203;28;20201;-77
2023/08/21 07:54:44;;;;;;;14.00;12.80;;;29.90;99.90;;;;;;5032491;28;20236;-77
2023/08/21 07:57:12;;;;;;;17.07;13.83;;;30.30;99.90;;;;;;5025219;28;20204;-77
2023/08/21 07:59:40;;;;;;;12.80;11.70;;;30.60;99.90;;;;;;5031129;28;20192;-77
2023/08/21 08:02:07;;;;;;;13.23;12.13;;;30.80;99.90;;;;;;5032667;28;20208;-77
2023/08/21 08:04:34;;;;;;;12.57;9.57;;;31.00;99.90;;;;;;5030411;28;20251;-77
2023/08/21 08:07:01;;;;;;;10.10;9.20;;;31.00;99.90;;;;;;5034632;28;20559;-77
2023/08/21 08:09:27;;;;;;;13.50;12.50;;;31.10;99.90;;;;;;5029560;28;20231;-77
2023/08/21 08:11:54;;;;;;;8.33;7.33;;;31.30;99.90;;;;;;5032511;28;20621;-77
2023/08/21 08:14:22;;;;;;;8.77;7.90;;;31.50;99.90;;;;;;5033808;28;20224;-77
2023/08/21 08:16:49;;;;;;;8.63;7.67;;;31.50;99.90;;;;;;5046083;28;20193;-77
2023/08/21 08:19:16;;;;;;;8.33;7.57;;;31.50;99.90;;;;;;5031987;28;20700;-77
2023/08/21 08:21:43;;;;;;;9.60;8.70;;;31.30;99.90;;;;;;5030428;28;20208;-77
2023/08/21 08:24:10;;;;;;;13.23;12.13;;;31.40;99.90;;;;;;5033253;28;20216;-77
2023/08/21 08:26:37;;;;;;;8.30;7.43;;;31.60;99.90;;;;;;5029981;28;20201;-77
2023/08/21 08:29:04;;;;;;;10.57;8.07;;;31.50;99.90;;;;;;5030551;28;20753;-77
2023/08/21 08:31:33;;;;;;;11.80;7.15;;;31.70;99.90;;;;;;5036221;28;20222;-77
2023/08/21 08:33:59;;;;;;;9.35;7.22;;;31.90;99.90;;;;;;5030505;28;20246;-77
2023/08/21 08:36:26;;;;;;;10.85;9.95;;;32.10;99.90;;;;;;5029510;28;20196;-77
2023/08/21 08:38:53;;;;;;;9.50;8.07;;;32.10;99.90;;;;;;5020359;28;20200;-77
2023/08/21 08:41:28;;;;;;;11.38;10.48;;;32.50;99.90;;;;;;5030401;28;20195;-77
2023/08/21 08:43:57;;;;;;;11.38;10.40;;;32.50;99.90;;;;;;5029492;28;20215;-77
2023/08/21 08:46:25;;;;;;;10.98;10.07;;;32.50;99.90;;;;;;5038086;28;20551;-77
2023/08/21 08:48:53;;;;;;;11.23;10.23;;;32.70;99.90;;;;;;5030855;28;20226;-77
2023/08/21 08:51:20;;;;;;;12.55;11.40;;;32.70;99.90;;;;;;5030292;28;20235;-77
2023/08/21 08:53:48;;;;;;;12.07;10.93;;;32.80;99.90;;;;;;5026486;28;20243;-77
2023/08/21 08:56:15;;;;;;;12.40;11.20;;;33.00;99.90;;;;;;5034693;28;20200;-77
2023/08/21 08:58:42;;;;;;;13.02;11.73;;;33.30;99.90;;;;;;5028729;28;20670;-78
2023/08/21 09:01:10;;;;;;;11.05;10.02;;;33.20;99.90;;;;;;5036975;28;20207;-77
2023/08/21 09:03:37;;;;;;;12.93;11.82;;;33.20;99.90;;;;;;5036332;28;20223;-78
2023/08/21 09:06:05;;;;;;;12.80;11.70;;;32.90;99.90;;;;;;5040682;28;20251;-80
2023/08/21 09:08:32;;;;;;;13.30;11.93;;;32.80;99.90;;;;;;5025064;28;20217;-79
2023/08/21 09:11:03;;;;;;;10.38;9.48;;;32.70;99.90;;;;;;5032262;28;20193;-78
2023/08/21 09:13:31;;;;;;;10.02;9.13;;;32.70;99.90;;;;;;5036167;28;20279;-79
2023/08/21 09:16:00;;;;;;;13.40;11.35;;;32.80;99.90;;;;;;5045282;28;20693;-80
2023/08/21 09:18:27;;;;;;;11.85;10.95;;;33.00;99.90;;;;;;5041570;28;20206;-78
2023/08/21 09:20:53;;;;;;;11.57;10.68;;;33.10;99.90;;;;;;5040130;28;20211;-79
2023/08/21 09:23:21;;;;;;;12.00;10.95;;;33.10;99.90;;;;;;5037777;28;20227;-80
2023/08/21 09:25:49;;;;;;;11.90;10.90;;;33.20;99.90;;;;;;5036456;28;20234;-78
2023/08/21 09:28:20;;;;;;;11.43;10.43;;;32.80;99.90;;;;;;5040618;28;20216;-78
2023/08/21 09:30:49;;;;;;;12.05;11.00;;;32.80;99.90;;;;;;5039681;28;20554;-78
2023/08/21 09:33:18;;;;;;;11.65;10.65;;;32.50;99.90;;;;;;5038274;28;20710;-79
2023/08/21 09:35:45;;;;;;;11.52;10.73;;;32.60;99.90;;;;;;5038623;28;20196;-79
2023/08/21 09:38:12;;;;;;;11.95;10.85;;;32.70;99.90;;;;;;5038570;28;20266;-79
2023/08/21 09:40:50;;;;;;;11.95;10.98;;;32.80;99.90;;;;;;5036592;28;20203;-80
2023/08/21 09:43:17;;;;;;;11.82;10.93;;;32.90;99.90;;;;;;5037948;28;20273;-80
2023/08/21 09:45:47;;;;;;;12.18;11.07;;;33.00;99.90;;;;;;5036098;28;20226;-78
2023/08/21 09:48:14;;;;;;;9.77;8.88;;;33.10;99.90;;;;;;5033438;28;20208;-78
2023/08/21 09:50:42;;;;;;;9.93;9.13;;;33.20;99.90;;;;;;5032362;28;20231;-78
2023/08/21 09:53:10;;;;;;;11.98;11.02;;;33.20;99.90;;;;;;5049047;28;20436;-81
2023/08/21 09:55:37;;;;;;;11.93;11.02;;;33.20;99.90;;;;;;5034318;28;20495;-78
2023/08/21 09:58:05;;;;;;;11.95;11.05;;;33.10;99.90;;;;;;5037751;28;20832;-79
2023/08/21 10:00:34;;;;;;;11.98;10.88;;;33.10;99.90;;;;;;5034853;28;20207;-79
2023/08/21 10:03:04;;;;;;;12.13;11.13;;;32.90;99.90;;;;;;5031305;28;20283;-78
2023/08/21 10:05:33;;;;;;;11.73;10.82;;;33.10;99.90;;;;;;5037872;28;20215;-78
2023/08/21 10:08:02;;;;;;;11.20;10.30;;;33.30;99.90;;;;;;5038088;28;20265;-78
2023/08/21 10:10:31;;;;;;;12.20;11.30;;;33.10;99.90;;;;;;5036400;28;20341;-79
2023/08/21 10:12:58;;;;;;;10.55;9.75;;;32.90;99.90;;;;;;5034155;28;20219;-78
2023/08/21 10:15:29;;;;;;;12.45;11.35;;;32.70;99.90;;;;;;5037862;28;20270;-78
2023/08/21 10:17:56;;;;;;;12.13;11.05;;;32.50;99.90;;;;;;5036667;28;20717;-79
2023/08/21 10:20:25;;;;;;;13.52;12.20;;;32.30;99.90;;;;;;5036204;28;20231;-78
2023/08/21 10:22:54;;;;;;;13.75;12.63;;;32.20;99.90;;;;;;5037443;28;20266;-78
2023/08/21 10:25:23;;;;;;;10.57;9.68;;;32.40;99.90;;;;;;5038120;28;20694;-78
2023/08/21 10:27:52;;;;;;;12.40;11.35;;;32.50;99.90;;;;;;5039112;28;20572;-78
2023/08/21 10:30:22;;;;;;;12.57;11.60;;;32.60;99.90;;;;;;5034949;28;20207;-78
2023/08/21 10:32:52;;;;;;;12.75;11.77;;;32.40;99.90;;;;;;5037184;28;20297;-79
2023/08/21 10:35:21;;;;;;;12.23;11.27;;;32.50;99.90;;;;;;5035751;28;20200;-78
2023/08/21 10:38:07;;;;;;;11.93;10.90;;;32.60;99.90;;;;;;5041575;28;20203;-78
2023/08/21 10:40:35;;;;;;;12.18;10.95;;;32.30;99.90;;;;;;5039969;28;20196;-78
2023/08/21 10:43:02;;;;;;;10.68;9.68;;;32.40;99.90;;;;;;5039660;28;20234;-77
2023/08/21 10:45:29;;;;;;;11.35;10.35;;;32.30;99.90;;;;;;5040182;28;20200;-79
2023/08/21 10:47:59;;;;;;;12.50;11.48;;;32.20;99.90;;;;;;5040039;28;20226;-78
2023/08/21 10:50:26;;;;;;;12.50;11.50;;;32.10;99.90;;;;;;5037835;28;20204;-78
2023/08/21 10:52:54;;;;;;;12.05;11.13;;;32.00;99.90;;;;;;5039646;28;20222;-78
2023/08/21 10:55:21;;;;;;;12.07;11.18;;;32.20;99.90;;;;;;5039513;28;20204;-80
2023/08/21 10:57:49;;;;;;;11.70;10.90;;;32.20;99.90;;;;;;5038730;28;20670;-78
2023/08/21 11:00:17;;;;;;;12.82;11.77;;;32.20;99.90;;;;;;5040013;28;20222;-79
2023/08/21 11:02:46;;;;;;;12.55;11.55;;;32.00;99.90;;;;;;5039099;28;20287;-78
2023/08/21 11:05:16;;;;;;;12.10;11.10;;;31.90;99.90;;;;;;5040678;28;20207;-78
2023/08/21 11:07:44;;;;;;;12.07;11.27;;;31.90;99.90;;;;;;5039861;28;20188;-78
2023/08/21 11:10:14;;;;;;;11.90;11.07;;;31.80;99.90;;;;;;5044190;28;20246;-78
2023/08/21 11:12:50;;;;;;;12.00;11.03;;;31.80;99.90;;;;;;5046531;28;20257;-78
2023/08/21 11:15:18;;;;;;;12.03;10.97;;;32.00;99.90;;;;;;5042123;28;20395;-78
2023/08/21 11:17:52;;;;;;;13.10;11.80;;;32.10;99.90;;;;;;5033352;28;20276;-79
2023/08/21 11:20:20;;;;;;;13.30;11.97;;;31.80;99.90;;;;;;5035168;28;20195;-79
2023/08/21 11:22:47;;;;;;;11.23;10.23;;;31.60;99.90;;;;;;5043458;28;20223;-79
2023/08/21 11:25:15;;;;;;;12.63;11.63;;;31.50;99.90;;;;;;5046792;28;20663;-77
2023/08/21 11:27:42;;;;;;;12.67;11.57;;;31.40;99.90;;;;;;5042596;28;20403;-78
2023/08/21 11:30:12;;;;;;;12.40;11.30;;;31.40;99.90;;;;;;5038533;28;20230;-79
2023/08/21 11:32:39;;;;;;;12.30;11.30;;;31.30;99.90;;;;;;5051063;28;20202;-79
2023/08/21 11:35:06;;;;;;;12.17;11.27;;;31.30;99.90;;;;;;5043874;28;20208;-79
2023/08/21 11:37:34;;;;;;;10.20;9.40;;;31.40;99.90;;;;;;5046577;28;20678;-79
2023/08/21 11:40:09;;;;;;;10.37;8.80;;;31.50;99.90;;;;;;5046599;28;20192;-79
2023/08/21 11:42:36;;;;;;;10.20;9.03;;;31.40;99.90;;;;;;5043507;28;20205;-79
2023/08/21 11:45:03;;;;;;;8.93;8.23;;;31.30;99.90;;;;;;5044791;28;20666;-79
2023/08/21 11:47:35;;;;;;;9.93;8.93;;;31.40;99.90;;;;;;5038959;28;20291;-76
2023/08/21 11:50:07;;;;;;;10.53;8.83;;;31.50;99.90;;;;;;5042656;28;20227;-76
2023/08/21 11:52:38;;;;;;;11.63;9.70;;;31.60;99.90;;;;;;5043272;28;20192;-77
2023/08/21 11:55:09;;;;;;;11.10;10.30;;;31.50;99.90;;;;;;5041531;28;20449;-76
2023/08/21 11:57:35;;;;;;;11.35;10.45;;;31.60;99.90;;;;;;5042954;28;20204;-77
2023/08/21 12:00:05;;;;;;;11.93;11.03;;;31.50;99.90;;;;;;5037156;28;20223;-76
2023/08/21 12:02:32;;;;;;;11.87;10.87;;;31.50;99.90;;;;;;5041788;28;20227;-77
2023/08/21 12:05:04;;;;;;;12.13;11.13;;;31.50;99.90;;;;;;5042292;28;20195;-76
2023/08/21 12:07:31;;;;;;;11.60;10.70;;;31.40;99.90;;;;;;5040075;28;20989;-76
2023/08/21 12:09:59;;;;;;;11.60;10.70;;;31.40;99.90;;;;;;5041368;28;20211;-76
2023/08/21 12:12:26;;;;;;;11.70;10.80;;;31.30;99.90;;;;;;5036828;28;20997;-76
2023/08/21 12:14:53;;;;;;;11.33;10.33;;;31.40;99.90;;;;;;5036601;28;20203;-76
2023/08/21 12:17:20;;;;;;;11.23;10.27;;;31.30;99.90;;;;;;5042185;28;20196;-76
2023/08/21 12:19:47;;;;;;;11.60;10.67;;;31.20;99.90;;;;;;5046628;28;20214;-76
2023/08/21 12:22:13;;;;;;;11.87;10.77;;;31.30;99.90;;;;;;5036081;28;20207;-76
2023/08/21 12:24:40;;;;;;;12.27;11.10;;;31.30;99.90;;;;;;5040001;28;20200;-76
2023/08/21 12:27:09;;;;;;;11.60;10.80;;;31.20;99.90;;;;;;5037583;28;20445;-76
2023/08/21 12:29:35;;;;;;;10.83;9.93;;;31.20;99.90;;;;;;5041381;28;20302;-76
2023/08/21 12:32:03;;;;;;;11.50;10.60;;;31.20;99.90;;;;;;5048129;28;20661;-76